sensor_id;sensor_type;location;lat;lon;timestamp;pressure;altitude;pressure_sealevel;temperature;humidity
39411;BME280;26579;43.238;23.124;2023-01-29T00:02:17;97144.47;;;4.09;76.43
39411;BME280;26579;43.238;23.124;2023-01-29T00:04:43;97150.22;;;4.14;76.21
39411;BME280;26579;43.238;23.124;2023-01-29T00:07:09;97137.84;;;4.05;75.99
39411;BME280;26579;43.238;23.124;2023-01-29T00:09:35;97153.75;;;4.13;76.23
39411;BME280;26579;43.238;23.124;2023-01-29T00:12:00;97152.22;;;4.09;76.42
39411;BME280;26579;43.238;23.124;2023-01-29T00:14:26;97124.44;;;3.98;76.02
39411;BME280;26579;43.238;23.124;2023-01-29T00:16:52;97152.53;;;4.03;76.34
39411;BME280;26579;43.238;23.124;2023-01-29T00:19:18;97145.63;;;3.88;76.37
39411;BME280;26579;43.238;23.124;2023-01-29T00:21:44;97159.50;;;4.01;76.08
39411;BME280;26579;43.238;23.124;2023-01-29T00:24:11;97163.59;;;4.05;76.57
39411;BME280;26579;43.238;23.124;2023-01-29T00:26:37;97161.13;;;3.86;76.74
39411;BME280;26579;43.238;23.124;2023-01-29T00:29:04;97164.78;;;3.82;77.41
39411;BME280;26579;43.238;23.124;2023-01-29T00:31:29;97160.50;;;3.98;76.68
39411;BME280;26579;43.238;23.124;2023-01-29T00:33:55;97163.66;;;4.03;76.34
39411;BME280;26579;43.238;23.124;2023-01-29T00:36:22;97163.44;;;4.08;76.27
39411;BME280;26579;43.238;23.124;2023-01-29T00:38:56;97163.44;;;4.08;75.92
39411;BME280;26579;43.238;23.124;2023-01-29T00:41:26;97169.19;;;4.13;75.75
39411;BME280;26579;43.238;23.124;2023-01-29T00:43:52;97161.75;;;4.07;75.63
39411;BME280;26579;43.238;23.124;2023-01-29T00:46:17;97176.22;;;3.94;76.68
39411;BME280;26579;43.238;23.124;2023-01-29T00:48:43;97175.59;;;3.89;76.54
39411;BME280;26579;43.238;23.124;2023-01-29T00:51:09;97170.41;;;3.73;76.99
39411;BME280;26579;43.238;23.124;2023-01-29T00:53:34;97171.63;;;3.66;77.13
39411;BME280;26579;43.238;23.124;2023-01-29T00:56:00;97185.91;;;3.89;76.84
39411;BME280;26579;43.238;23.124;2023-01-29T00:58:26;97184.75;;;3.94;76.55
39411;BME280;26579;43.238;23.124;2023-01-29T01:00:51;97173.63;;;3.94;75.92
39411;BME280;26579;43.238;23.124;2023-01-29T01:03:17;97174.56;;;3.93;75.90
39411;BME280;26579;43.238;23.124;2023-01-29T01:05:43;97187.78;;;4.02;75.45
39411;BME280;26579;43.238;23.124;2023-01-29T01:08:09;97187.56;;;3.90;76.27
39411;BME280;26579;43.238;23.124;2023-01-29T01:10:35;97193.50;;;3.74;77.00
39411;BME280;26579;43.238;23.124;2023-01-29T01:13:05;97198.81;;;3.71;77.18
39411;BME280;26579;43.238;23.124;2023-01-29T01:15:35;97189.16;;;3.75;76.50
39411;BME280;26579;43.238;23.124;2023-01-29T01:18:02;97200.69;;;3.85;76.75
39411;BME280;26579;43.238;23.124;2023-01-29T01:20:30;97207.56;;;4.02;75.99
39411;BME280;26579;43.238;23.124;2023-01-29T01:22:57;97185.84;;;3.90;75.71
39411;BME280;26579;43.238;23.124;2023-01-29T01:25:24;97195.06;;;3.94;75.78
39411;BME280;26579;43.238;23.124;2023-01-29T01:27:55;97188.41;;;3.90;75.84
39411;BME280;26579;43.238;23.124;2023-01-29T01:30:21;97209.59;;;3.95;76.18
39411;BME280;26579;43.238;23.124;2023-01-29T01:32:47;97184.31;;;3.86;75.91
39411;BME280;26579;43.238;23.124;2023-01-29T01:35:13;97195.69;;;3.82;75.81
39411;BME280;26579;43.238;23.124;2023-01-29T01:37:40;97210.91;;;3.86;75.88
39411;BME280;26579;43.238;23.124;2023-01-29T01:40:18;97206.44;;;3.90;76.06
39411;BME280;26579;43.238;23.124;2023-01-29T01:43:05;97213.59;;;4.01;75.42
39411;BME280;26579;43.238;23.124;2023-01-29T01:45:34;97214.09;;;3.92;76.02
39411;BME280;26579;43.238;23.124;2023-01-29T01:48:22;97218.94;;;3.80;76.44
39411;BME280;26579;43.238;23.124;2023-01-29T01:50:55;97216.38;;;3.63;77.46
39411;BME280;26579;43.238;23.124;2023-01-29T01:53:29;97212.91;;;3.64;77.12
39411;BME280;26579;43.238;23.124;2023-01-29T01:56:00;97215.69;;;3.77;76.92
39411;BME280;26579;43.238;23.124;2023-01-29T01:58:47;97221.59;;;3.79;76.88
39411;BME280;26579;43.238;23.124;2023-01-29T02:01:15;97198.75;;;3.73;76.55
39411;BME280;26579;43.238;23.124;2023-01-29T02:03:49;97218.25;;;3.77;76.28
39411;BME280;26579;43.238;23.124;2023-01-29T02:06:16;97214.25;;;3.71;76.43
39411;BME280;26579;43.238;23.124;2023-01-29T02:08:55;97218.41;;;3.56;77.46
39411;BME280;26579;43.238;23.124;2023-01-29T02:11:23;97195.03;;;3.44;77.92
39411;BME280;26579;43.238;23.124;2023-01-29T02:13:50;97214.09;;;3.57;78.12
39411;BME280;26579;43.238;23.124;2023-01-29T02:16:16;97209.03;;;3.55;77.78
39411;BME280;26579;43.238;23.124;2023-01-29T02:18:42;97219.56;;;3.68;77.67
39411;BME280;26579;43.238;23.124;2023-01-29T02:27:05;97221.16;;;3.71;77.09
39411;BME280;26579;43.238;23.124;2023-01-29T02:29:56;97224.84;;;3.82;76.72
39411;BME280;26579;43.238;23.124;2023-01-29T02:48:58;97221.97;;;3.89;76.39
39411;BME280;26579;43.238;23.124;2023-01-29T02:51:37;97230.31;;;3.76;76.90
39411;BME280;26579;43.238;23.124;2023-01-29T02:54:16;97230.78;;;3.67;76.91
39411;BME280;26579;43.238;23.124;2023-01-29T02:56:57;97216.91;;;3.70;77.18
39411;BME280;26579;43.238;23.124;2023-01-29T02:59:55;97232.38;;;3.87;76.64
39411;BME280;26579;43.238;23.124;2023-01-29T03:05:41;97228.25;;;3.83;77.02
39411;BME280;26579;43.238;23.124;2023-01-29T03:08:11;97236.28;;;3.94;76.34
39411;BME280;26579;43.238;23.124;2023-01-29T03:10:43;97233.66;;;3.78;76.91
39411;BME280;26579;43.238;23.124;2023-01-29T03:13:18;97230.47;;;3.73;77.09
39411;BME280;26579;43.238;23.124;2023-01-29T03:15:48;97209.47;;;3.63;77.03
39411;BME280;26579;43.238;23.124;2023-01-29T03:18:36;97236.44;;;3.91;76.35
39411;BME280;26579;43.238;23.124;2023-01-29T03:21:09;97226.97;;;3.92;75.73
39411;BME280;26579;43.238;23.124;2023-01-29T03:23:36;97236.72;;;4.02;75.66
39411;BME280;26579;43.238;23.124;2023-01-29T03:26:03;97239.00;;;3.91;76.09
39411;BME280;26579;43.238;23.124;2023-01-29T03:28:31;97231.34;;;3.90;75.88
39411;BME280;26579;43.238;23.124;2023-01-29T03:31:02;97238.53;;;4.00;75.77
39411;BME280;26579;43.238;23.124;2023-01-29T03:36:39;97247.88;;;3.68;77.16
39411;BME280;26579;43.238;23.124;2023-01-29T03:39:07;97240.38;;;3.81;76.93
39411;BME280;26579;43.238;23.124;2023-01-29T03:42:01;97244.16;;;3.91;76.35
39411;BME280;26579;43.238;23.124;2023-01-29T03:47:12;97249.53;;;3.86;76.21
39411;BME280;26579;43.238;23.124;2023-01-29T03:49:55;97242.34;;;3.93;76.26
39411;BME280;26579;43.238;23.124;2023-01-29T03:58:38;97241.97;;;3.83;76.58
39411;BME280;26579;43.238;23.124;2023-01-29T04:03:39;97250.09;;;3.93;76.22
39411;BME280;26579;43.238;23.124;2023-01-29T04:06:20;97249.63;;;3.85;76.40
39411;BME280;26579;43.238;23.124;2023-01-29T04:11:43;97227.50;;;3.81;76.11
39411;BME280;26579;43.238;23.124;2023-01-29T04:14:12;97238.97;;;3.75;76.58
39411;BME280;26579;43.238;23.124;2023-01-29T04:16:42;97235.53;;;3.75;76.09
39411;BME280;26579;43.238;23.124;2023-01-29T04:19:18;97227.13;;;3.71;76.33
39411;BME280;26579;43.238;23.124;2023-01-29T04:21:47;97236.38;;;3.75;76.33
39411;BME280;26579;43.238;23.124;2023-01-29T04:24:14;97247.50;;;3.93;76.01
39411;BME280;26579;43.238;23.124;2023-01-29T04:32:14;97249.47;;;3.71;76.75
39411;BME280;26579;43.238;23.124;2023-01-29T04:38:10;97246.13;;;3.69;77.32
39411;BME280;26579;43.238;23.124;2023-01-29T04:40:50;97223.78;;;3.69;76.36
39411;BME280;26579;43.238;23.124;2023-01-29T04:43:27;97244.47;;;3.85;76.21
39411;BME280;26579;43.238;23.124;2023-01-29T04:57:21;97261.44;;;3.89;76.37
39411;BME280;26579;43.238;23.124;2023-01-29T05:00:09;97237.50;;;3.87;76.07
39411;BME280;26579;43.238;23.124;2023-01-29T05:02:39;97260.13;;;3.98;76.23
39411;BME280;26579;43.238;23.124;2023-01-29T05:05:07;97252.50;;;3.96;75.88
39411;BME280;26579;43.238;23.124;2023-01-29T05:07:35;97257.72;;;3.95;76.24
39411;BME280;26579;43.238;23.124;2023-01-29T05:10:05;97264.81;;;4.07;75.56
39411;BME280;26579;43.238;23.124;2023-01-29T05:12:32;97269.00;;;3.92;76.13
39411;BME280;26579;43.238;23.124;2023-01-29T05:15:02;97276.00;;;3.90;76.08
39411;BME280;26579;43.238;23.124;2023-01-29T05:17:29;97272.97;;;3.99;75.89
39411;BME280;26579;43.238;23.124;2023-01-29T05:19:55;97280.16;;;3.93;76.04
39411;BME280;26579;43.238;23.124;2023-01-29T05:22:22;97273.03;;;3.98;75.73
39411;BME280;26579;43.238;23.124;2023-01-29T05:24:49;97266.38;;;3.94;75.60
39411;BME280;26579;43.238;23.124;2023-01-29T05:27:19;97281.72;;;3.95;76.12
39411;BME280;26579;43.238;23.124;2023-01-29T05:29:46;97279.47;;;3.89;76.15
39411;BME280;26579;43.238;23.124;2023-01-29T05:32:13;97282.13;;;3.88;76.72
39411;BME280;26579;43.238;23.124;2023-01-29T05:34:38;97260.16;;;3.80;76.45
39411;BME280;26579;43.238;23.124;2023-01-29T05:37:04;97279.72;;;3.84;76.35
39411;BME280;26579;43.238;23.124;2023-01-29T05:39:30;97258.13;;;3.70;76.73
39411;BME280;26579;43.238;23.124;2023-01-29T05:41:56;97285.91;;;3.80;76.85
39411;BME280;26579;43.238;23.124;2023-01-29T05:44:21;97268.34;;;3.71;77.01
39411;BME280;26579;43.238;23.124;2023-01-29T05:46:49;97281.53;;;3.82;76.86
39411;BME280;26579;43.238;23.124;2023-01-29T05:49:16;97286.81;;;3.79;77.03
39411;BME280;26579;43.238;23.124;2023-01-29T05:51:43;97297.03;;;3.81;76.95
39411;BME280;26579;43.238;23.124;2023-01-29T05:54:12;97292.66;;;3.83;76.90
39411;BME280;26579;43.238;23.124;2023-01-29T05:56:38;97287.59;;;3.81;76.48
39411;BME280;26579;43.238;23.124;2023-01-29T05:59:04;97271.66;;;3.56;77.12
39411;BME280;26579;43.238;23.124;2023-01-29T06:01:30;97292.78;;;3.62;77.42
39411;BME280;26579;43.238;23.124;2023-01-29T06:03:55;97293.03;;;3.75;77.02
39411;BME280;26579;43.238;23.124;2023-01-29T06:06:21;97297.19;;;3.95;76.12
39411;BME280;26579;43.238;23.124;2023-01-29T06:08:47;97293.88;;;3.93;76.09
39411;BME280;26579;43.238;23.124;2023-01-29T06:11:13;97297.34;;;3.92;76.41
39411;BME280;26579;43.238;23.124;2023-01-29T06:13:39;97311.00;;;3.94;76.42
39411;BME280;26579;43.238;23.124;2023-01-29T06:16:09;97311.00;;;3.94;76.41
39411;BME280;26579;43.238;23.124;2023-01-29T06:18:36;97304.63;;;3.84;76.38
39411;BME280;26579;43.238;23.124;2023-01-29T06:21:07;97321.28;;;3.94;76.37
39411;BME280;26579;43.238;23.124;2023-01-29T06:23:33;97325.69;;;3.92;76.49
39411;BME280;26579;43.238;23.124;2023-01-29T06:26:04;97310.31;;;3.91;76.12
39411;BME280;26579;43.238;23.124;2023-01-29T06:28:30;97306.91;;;3.90;75.79
39411;BME280;26579;43.238;23.124;2023-01-29T06:30:57;97334.53;;;4.04;75.93
39411;BME280;26579;43.238;23.124;2023-01-29T06:33:24;97324.03;;;3.91;75.84
39411;BME280;26579;43.238;23.124;2023-01-29T06:35:56;97328.09;;;3.95;75.41
39411;BME280;26579;43.238;23.124;2023-01-29T06:38:22;97333.72;;;3.86;76.27
39411;BME280;26579;43.238;23.124;2023-01-29T06:40:48;97341.13;;;3.92;76.48
39411;BME280;26579;43.238;23.124;2023-01-29T06:43:14;97337.72;;;3.92;76.32
39411;BME280;26579;43.238;23.124;2023-01-29T06:45:54;97354.63;;;3.97;75.91
39411;BME280;26579;43.238;23.124;2023-01-29T06:48:20;97349.09;;;3.88;76.67
39411;BME280;26579;43.238;23.124;2023-01-29T06:50:46;97340.69;;;3.84;76.48
39411;BME280;26579;43.238;23.124;2023-01-29T06:53:12;97360.16;;;4.07;76.41
39411;BME280;26579;43.238;23.124;2023-01-29T06:55:38;97320.91;;;3.84;75.53
39411;BME280;26579;43.238;23.124;2023-01-29T06:58:08;97366.38;;;4.03;75.79
39411;BME280;26579;43.238;23.124;2023-01-29T07:00:34;97364.03;;;4.16;75.77
39411;BME280;26579;43.238;23.124;2023-01-29T07:03:01;97354.09;;;3.91;75.85
39411;BME280;26579;43.238;23.124;2023-01-29T07:05:26;97368.34;;;3.98;75.92
39411;BME280;26579;43.238;23.124;2023-01-29T07:07:52;97368.34;;;3.98;76.42
39411;BME280;26579;43.238;23.124;2023-01-29T07:10:18;97359.94;;;3.94;75.89
39411;BME280;26579;43.238;23.124;2023-01-29T07:12:43;97374.25;;;4.00;76.14
39411;BME280;26579;43.238;23.124;2023-01-29T07:15:09;97351.13;;;3.81;76.86
39411;BME280;26579;43.238;23.124;2023-01-29T07:17:35;97375.19;;;3.99;76.47
39411;BME280;26579;43.238;23.124;2023-01-29T07:20:00;97373.97;;;4.06;76.26
39411;BME280;26579;43.238;23.124;2023-01-29T07:22:26;97362.00;;;4.05;75.44
39411;BME280;26579;43.238;23.124;2023-01-29T07:24:52;97374.72;;;4.08;75.99
39411;BME280;26579;43.238;23.124;2023-01-29T07:27:17;97379.28;;;4.03;75.90
39411;BME280;26579;43.238;23.124;2023-01-29T07:29:43;97382.84;;;4.18;75.55
39411;BME280;26579;43.238;23.124;2023-01-29T07:32:09;97383.00;;;4.15;75.69
39411;BME280;26579;43.238;23.124;2023-01-29T07:34:34;97384.59;;;4.17;75.96
39411;BME280;26579;43.238;23.124;2023-01-29T07:37:00;97382.00;;;4.17;75.96
39411;BME280;26579;43.238;23.124;2023-01-29T07:39:26;97379.13;;;4.06;76.07
39411;BME280;26579;43.238;23.124;2023-01-29T07:41:51;97390.81;;;4.13;76.04
39411;BME280;26579;43.238;23.124;2023-01-29T07:44:17;97373.44;;;3.99;76.20
39411;BME280;26579;43.238;23.124;2023-01-29T07:46:43;97378.06;;;3.93;76.17
39411;BME280;26579;43.238;23.124;2023-01-29T07:49:08;97393.91;;;4.02;76.22
39411;BME280;26579;43.238;23.124;2023-01-29T07:51:34;97394.56;;;4.06;76.02
39411;BME280;26579;43.238;23.124;2023-01-29T07:54:00;97405.41;;;4.13;75.33
39411;BME280;26579;43.238;23.124;2023-01-29T07:56:25;97398.44;;;3.97;75.71
39411;BME280;26579;43.238;23.124;2023-01-29T07:58:51;97404.88;;;4.06;75.88
39411;BME280;26579;43.238;23.124;2023-01-29T08:01:17;97382.78;;;3.83;75.95
39411;BME280;26579;43.238;23.124;2023-01-29T08:03:42;97407.97;;;3.95;75.96
39411;BME280;26579;43.238;23.124;2023-01-29T08:06:09;97417.00;;;4.04;76.05
39411;BME280;26579;43.238;23.124;2023-01-29T08:08:35;97422.00;;;4.07;76.15
39411;BME280;26579;43.238;23.124;2023-01-29T08:11:02;97408.19;;;3.91;76.52
39411;BME280;26579;43.238;23.124;2023-01-29T08:13:28;97418.97;;;3.99;76.58
39411;BME280;26579;43.238;23.124;2023-01-29T08:15:58;97421.47;;;4.00;76.01
39411;BME280;26579;43.238;23.124;2023-01-29T08:18:24;97423.41;;;4.14;75.47
39411;BME280;26579;43.238;23.124;2023-01-29T08:20:49;97429.53;;;4.12;75.54
39411;BME280;26579;43.238;23.124;2023-01-29T08:23:15;97416.03;;;4.06;75.15
39411;BME280;26579;43.238;23.124;2023-01-29T08:25:41;97431.66;;;4.21;74.74
39411;BME280;26579;43.238;23.124;2023-01-29T08:28:07;97430.34;;;4.12;75.30
39411;BME280;26579;43.238;23.124;2023-01-29T08:30:33;97417.91;;;4.03;75.85
39411;BME280;26579;43.238;23.124;2023-01-29T08:32:59;97439.38;;;4.21;75.19
39411;BME280;26579;43.238;23.124;2023-01-29T08:35:25;97440.59;;;4.14;75.80
39411;BME280;26579;43.238;23.124;2023-01-29T08:37:56;97439.09;;;4.27;75.35
39411;BME280;26579;43.238;23.124;2023-01-29T08:40:22;97447.66;;;4.27;75.49
39411;BME280;26579;43.238;23.124;2023-01-29T08:42:48;97448.50;;;4.28;75.63
39411;BME280;26579;43.238;23.124;2023-01-29T08:45:13;97443.19;;;4.14;75.75
39411;BME280;26579;43.238;23.124;2023-01-29T08:47:44;97450.13;;;4.12;76.09
39411;BME280;26579;43.238;23.124;2023-01-29T08:50:10;97454.03;;;4.20;75.02
39411;BME280;26579;43.238;23.124;2023-01-29T08:52:36;97454.16;;;4.17;75.25
39411;BME280;26579;43.238;23.124;2023-01-29T08:55:02;97452.50;;;4.16;75.77
39411;BME280;26579;43.238;23.124;2023-01-29T08:57:27;97455.69;;;4.21;75.47
39411;BME280;26579;43.238;23.124;2023-01-29T08:59:53;97457.81;;;4.13;75.42
39411;BME280;26579;43.238;23.124;2023-01-29T09:02:19;97449.50;;;4.06;76.06
39411;BME280;26579;43.238;23.124;2023-01-29T09:04:44;97456.81;;;4.16;76.05
39411;BME280;26579;43.238;23.124;2023-01-29T09:07:10;97434.63;;;4.13;75.89
39411;BME280;26579;43.238;23.124;2023-01-29T09:09:36;97453.72;;;4.26;75.62
39411;BME280;26579;43.238;23.124;2023-01-29T09:12:01;97439.09;;;4.27;75.41
39411;BME280;26579;43.238;23.124;2023-01-29T09:14:28;97446.84;;;4.44;75.42
39411;BME280;26579;43.238;23.124;2023-01-29T09:16:53;97443.13;;;4.50;74.76
39411;BME280;26579;43.238;23.124;2023-01-29T09:19:19;97442.97;;;4.53;74.71
39411;BME280;26579;43.238;23.124;2023-01-29T09:21:45;97440.03;;;4.61;74.61
39411;BME280;26579;43.238;23.124;2023-01-29T09:24:10;97426.59;;;4.54;74.27
39411;BME280;26579;43.238;23.124;2023-01-29T09:26:36;97432.13;;;4.64;73.77
39411;BME280;26579;43.238;23.124;2023-01-29T09:29:02;97416.19;;;4.56;74.25
39411;BME280;26579;43.238;23.124;2023-01-29T09:31:27;97427.63;;;4.67;74.79
39411;BME280;26579;43.238;23.124;2023-01-29T09:33:53;97409.38;;;4.72;74.35
39411;BME280;26579;43.238;23.124;2023-01-29T09:36:19;97424.69;;;4.75;74.31
39411;BME280;26579;43.238;23.124;2023-01-29T09:38:44;97416.03;;;4.76;73.93
39411;BME280;26579;43.238;23.124;2023-01-29T09:43:53;97415.47;;;4.87;74.11
39411;BME280;26579;43.238;23.124;2023-01-29T09:46:40;97410.50;;;4.99;73.66
39411;BME280;26579;43.238;23.124;2023-01-29T09:49:20;97409.53;;;5.02;73.64
39411;BME280;26579;43.238;23.124;2023-01-29T09:51:56;97414.78;;;5.01;73.99
39411;BME280;26579;43.238;23.124;2023-01-29T09:54:30;97397.09;;;4.93;74.53
39411;BME280;26579;43.238;23.124;2023-01-29T09:56:59;97391.56;;;5.01;74.71
39411;BME280;26579;43.238;23.124;2023-01-29T09:59:30;97392.13;;;5.06;74.10
39411;BME280;26579;43.238;23.124;2023-01-29T10:02:09;97404.66;;;5.29;73.56
39411;BME280;26579;43.238;23.124;2023-01-29T10:13:02;97395.69;;;6.00;68.18
39411;BME280;26579;43.238;23.124;2023-01-29T10:23:39;97361.31;;;6.58;65.99
39411;BME280;26579;43.238;23.124;2023-01-29T10:26:10;97378.88;;;6.82;63.20
39411;BME280;26579;43.238;23.124;2023-01-29T10:28:44;97357.16;;;6.84;62.98
39411;BME280;26579;43.238;23.124;2023-01-29T10:31:33;97375.97;;;7.43;61.85
39411;BME280;26579;43.238;23.124;2023-01-29T10:36:36;97375.75;;;7.61;60.26
39411;BME280;26579;43.238;23.124;2023-01-29T10:39:03;97351.78;;;7.57;61.37
39411;BME280;26579;43.238;23.124;2023-01-29T10:41:57;97369.75;;;7.87;59.50
39411;BME280;26579;43.238;23.124;2023-01-29T10:47:26;97354.13;;;8.93;57.71
39411;BME280;26579;43.238;23.124;2023-01-29T11:00:16;97314.56;;;9.39;52.42
39411;BME280;26579;43.238;23.124;2023-01-29T11:02:45;97329.91;;;10.03;51.06
39411;BME280;26579;43.238;23.124;2023-01-29T11:05:33;97326.75;;;10.10;48.68
39411;BME280;26579;43.238;23.124;2023-01-29T11:08:10;97310.81;;;10.26;49.97
39411;BME280;26579;43.238;23.124;2023-01-29T11:13:17;97329.13;;;10.13;46.83
39411;BME280;26579;43.238;23.124;2023-01-29T11:15:43;97319.75;;;9.75;48.71
39411;BME280;26579;43.238;23.124;2023-01-29T11:18:12;97320.84;;;9.60;48.64
39411;BME280;26579;43.238;23.124;2023-01-29T11:20:39;97316.19;;;9.52;50.18
39411;BME280;26579;43.238;23.124;2023-01-29T11:23:05;97320.81;;;9.36;49.49
39411;BME280;26579;43.238;23.124;2023-01-29T11:25:31;97302.19;;;9.05;50.49
39411;BME280;26579;43.238;23.124;2023-01-29T11:27:58;97305.72;;;9.04;50.72
39411;BME280;26579;43.238;23.124;2023-01-29T11:30:35;97311.56;;;8.95;50.79
39411;BME280;26579;43.238;23.124;2023-01-29T11:33:20;97309.50;;;8.75;50.79
39411;BME280;26579;43.238;23.124;2023-01-29T11:35:47;97299.56;;;8.56;52.25
39411;BME280;26579;43.238;23.124;2023-01-29T11:38:24;97300.34;;;8.31;54.05
39411;BME280;26579;43.238;23.124;2023-01-29T11:40:51;97302.69;;;8.08;55.43
39411;BME280;26579;43.238;23.124;2023-01-29T11:43:27;97272.25;;;7.85;55.78
39411;BME280;26579;43.238;23.124;2023-01-29T11:45:59;97292.03;;;7.73;56.43
39411;BME280;26579;43.238;23.124;2023-01-29T11:48:44;97286.28;;;7.55;56.60
39411;BME280;26579;43.238;23.124;2023-01-29T11:51:20;97281.25;;;7.39;56.00
39411;BME280;26579;43.238;23.124;2023-01-29T11:53:58;97294.91;;;7.41;57.51
39411;BME280;26579;43.238;23.124;2023-01-29T11:56:33;97284.53;;;7.29;57.10
39411;BME280;26579;43.238;23.124;2023-01-29T11:59:04;97282.47;;;7.34;57.43
39411;BME280;26579;43.238;23.124;2023-01-29T12:01:38;97290.44;;;7.31;58.31
39411;BME280;26579;43.238;23.124;2023-01-29T12:04:20;97291.75;;;7.23;57.98
39411;BME280;26579;43.238;23.124;2023-01-29T12:06:48;97297.13;;;7.20;57.55
39411;BME280;26579;43.238;23.124;2023-01-29T12:09:18;97292.69;;;7.08;58.02
39411;BME280;26579;43.238;23.124;2023-01-29T12:11:44;97297.13;;;7.20;56.53
39411;BME280;26579;43.238;23.124;2023-01-29T12:14:29;97295.34;;;7.21;56.85
39411;BME280;26579;43.238;23.124;2023-01-29T12:25:46;97301.69;;;6.74;64.63
39411;BME280;26579;43.238;23.124;2023-01-29T12:36:27;97295.41;;;6.49;66.99
39411;BME280;26579;43.238;23.124;2023-01-29T12:38:56;97297.81;;;6.38;67.85
39411;BME280;26579;43.238;23.124;2023-01-29T12:44:20;97298.81;;;6.35;67.61
39411;BME280;26579;43.238;23.124;2023-01-29T12:46:53;97294.66;;;6.47;67.02
39411;BME280;26579;43.238;23.124;2023-01-29T12:49:26;97302.44;;;6.47;67.93
39411;BME280;26579;43.238;23.124;2023-01-29T12:55:00;97300.28;;;6.40;67.93
39411;BME280;26579;43.238;23.124;2023-01-29T12:58:04;97304.38;;;6.44;67.92
39411;BME280;26579;43.238;23.124;2023-01-29T13:00:43;97294.75;;;6.31;68.79
39411;BME280;26579;43.238;23.124;2023-01-29T13:03:44;97305.47;;;6.40;69.06
39411;BME280;26579;43.238;23.124;2023-01-29T13:06:20;97309.44;;;6.31;69.37
39411;BME280;26579;43.238;23.124;2023-01-29T13:08:58;97297.97;;;6.21;69.94
39411;BME280;26579;43.238;23.124;2023-01-29T13:11:46;97317.09;;;6.32;69.56
39411;BME280;26579;43.238;23.124;2023-01-29T13:16:56;97306.84;;;6.31;69.57
39411;BME280;26579;43.238;23.124;2023-01-29T13:19:37;97313.19;;;6.25;69.63
39411;BME280;26579;43.238;23.124;2023-01-29T13:22:13;97316.53;;;6.27;69.15
39411;BME280;26579;43.238;23.124;2023-01-29T13:24:41;97315.13;;;6.22;69.58
39411;BME280;26579;43.238;23.124;2023-01-29T13:27:25;97310.91;;;6.21;69.49
39411;BME280;26579;43.238;23.124;2023-01-29T13:29:52;97314.88;;;6.26;70.53
39411;BME280;26579;43.238;23.124;2023-01-29T13:32:25;97298.34;;;6.15;70.17
39411;BME280;26579;43.238;23.124;2023-01-29T13:34:53;97317.53;;;6.25;70.16
39411;BME280;26579;43.238;23.124;2023-01-29T13:39:51;97302.84;;;6.11;69.68
39411;BME280;26579;43.238;23.124;2023-01-29T13:42:22;97325.00;;;6.15;70.16
39411;BME280;26579;43.238;23.124;2023-01-29T13:44:51;97325.53;;;6.06;69.79
39411;BME280;26579;43.238;23.124;2023-01-29T13:47:29;97321.66;;;6.13;69.24
39411;BME280;26579;43.238;23.124;2023-01-29T13:52:45;97320.03;;;6.12;68.69
39411;BME280;26579;43.238;23.124;2023-01-29T14:02:46;97325.06;;;5.99;69.29
39411;BME280;26579;43.238;23.124;2023-01-29T14:08:05;97333.06;;;5.95;69.78
39411;BME280;26579;43.238;23.124;2023-01-29T14:13:47;97332.47;;;5.89;70.70
39411;BME280;26579;43.238;23.124;2023-01-29T14:19:01;97329.47;;;5.81;71.76
39411;BME280;26579;43.238;23.124;2023-01-29T14:21:37;97332.16;;;5.80;71.50
39411;BME280;26579;43.238;23.124;2023-01-29T14:31:42;97339.75;;;5.83;72.33
39411;BME280;26579;43.238;23.124;2023-01-29T14:36:48;97337.50;;;5.77;72.58
39411;BME280;26579;43.238;23.124;2023-01-29T14:39:33;97328.41;;;5.70;72.45
39411;BME280;26579;43.238;23.124;2023-01-29T14:42:03;97342.75;;;5.75;72.69
39411;BME280;26579;43.238;23.124;2023-01-29T14:47:19;97354.00;;;5.74;72.80
39411;BME280;26579;43.238;23.124;2023-01-29T14:49:53;97344.03;;;5.68;72.95
39411;BME280;26579;43.238;23.124;2023-01-29T14:52:34;97340.09;;;5.61;73.11
39411;BME280;26579;43.238;23.124;2023-01-29T14:55:06;97359.59;;;5.66;73.03
39411;BME280;26579;43.238;23.124;2023-01-29T14:57:34;97344.09;;;5.66;72.98
39411;BME280;26579;43.238;23.124;2023-01-29T15:00:03;97356.94;;;5.68;72.62
39411;BME280;26579;43.238;23.124;2023-01-29T15:02:42;97348.84;;;5.58;73.26
39411;BME280;26579;43.238;23.124;2023-01-29T15:05:18;97350.13;;;5.51;73.27
39411;BME280;26579;43.238;23.124;2023-01-29T15:08:07;97352.75;;;5.50;73.34
39411;BME280;26579;43.238;23.124;2023-01-29T15:10:43;97352.44;;;5.56;73.10
39411;BME280;26579;43.238;23.124;2023-01-29T15:13:33;97358.34;;;5.58;72.75
39411;BME280;26579;43.238;23.124;2023-01-29T15:16:08;97355.09;;;5.54;73.36
39411;BME280;26579;43.238;23.124;2023-01-29T15:18:39;97343.78;;;5.57;72.77
39411;BME280;26579;43.238;23.124;2023-01-29T15:21:12;97356.19;;;5.66;72.36
39411;BME280;26579;43.238;23.124;2023-01-29T15:23:38;97351.03;;;5.50;72.52
39411;BME280;26579;43.238;23.124;2023-01-29T15:26:06;97360.09;;;5.57;72.83
39411;BME280;26579;43.238;23.124;2023-01-29T15:28:34;97356.88;;;5.54;73.00
39411;BME280;26579;43.238;23.124;2023-01-29T15:31:03;97356.63;;;5.42;73.13
39411;BME280;26579;43.238;23.124;2023-01-29T15:33:36;97354.78;;;5.44;72.35
39411;BME280;26579;43.238;23.124;2023-01-29T15:36:28;97364.94;;;5.32;72.70
39411;BME280;26579;43.238;23.124;2023-01-29T15:41:36;97365.94;;;5.29;73.22
39411;BME280;26579;43.238;23.124;2023-01-29T15:44:02;97360.19;;;5.40;72.88
39411;BME280;26579;43.238;23.124;2023-01-29T15:46:34;97371.50;;;5.37;72.71
39411;BME280;26579;43.238;23.124;2023-01-29T15:49:07;97375.84;;;5.37;72.54
39411;BME280;26579;43.238;23.124;2023-01-29T15:51:34;97357.19;;;5.32;72.16
39411;BME280;26579;43.238;23.124;2023-01-29T15:54:05;97366.78;;;5.45;71.75
39411;BME280;26579;43.238;23.124;2023-01-29T15:56:40;97369.94;;;5.35;72.47
39411;BME280;26579;43.238;23.124;2023-01-29T15:59:17;97362.50;;;5.29;72.45
39411;BME280;26579;43.238;23.124;2023-01-29T16:01:46;97353.19;;;5.26;72.75